Time;durP1;ratioP1;P1;durP2;ratioP2;P2;SDS_P1;SDS_P2;PMS_P1;PMS_P2;Temp;Humidity;BMP_temperature;BMP_pressure;BME280_temperature;BME280_humidity;BME280_pressure;Samples;Min_cycle;Max_cycle;Signal;HPM_P1;HPM_P2
2023/04/16 00:00:25;;;;;;;30.48;13.43;;;;;;;;;;5005400;28;20045;-82
2023/04/16 00:03:10;;;;;;;26.50;12.90;;;;;;;;;;5005656;28;20058;-83
2023/04/16 00:05:58;;;;;;;33.53;13.73;;;;;;;;;;5018754;28;20042;-84
2023/04/16 00:08:43;;;;;;;29.77;13.98;;;;;;;;;;5005605;28;20045;-83
2023/04/16 00:11:29;;;;;;;29.05;14.70;;;;;;;;;;5012806;28;20042;-83
2023/04/16 00:14:14;;;;;;;26.73;13.93;;;;;;;;;;5022681;28;20490;-85
2023/04/16 00:16:59;;;;;;;29.05;14.13;;;;;;;;;;5009537;28;20483;-83
2023/04/16 00:19:45;;;;;;;30.65;14.43;;;;;;;;;;5016482;28;20038;-84
2023/04/16 00:22:30;;;;;;;30.48;14.75;;;;;;;;;;5023150;28;20049;-85
2023/04/16 00:25:16;;;;;;;35.47;14.65;;;;;;;;;;5023104;28;20038;-82
2023/04/16 00:28:01;;;;;;;27.63;13.88;;;;;;;;;;5008979;28;20046;-83
2023/04/16 00:30:47;;;;;;;26.60;14.05;;;;;;;;;;5023271;28;20046;-83
2023/04/16 00:33:33;;;;;;;28.70;14.30;;;;;;;;;;5022584;28;20046;-83
2023/04/16 00:36:18;;;;;;;29.83;14.77;;;;;;;;;;5023104;28;20058;-84
2023/04/16 00:39:04;;;;;;;29.90;14.00;;;;;;;;;;5009549;28;20046;-84
2023/04/16 00:41:50;;;;;;;30.42;15.02;;;;;;;;;;5015819;28;20053;-86
2023/04/16 00:44:35;;;;;;;31.63;13.32;;;;;;;;;;5023034;28;20430;-86
2023/04/16 00:47:21;;;;;;;29.60;14.05;;;;;;;;;;5015867;28;20430;-86
2023/04/16 00:50:07;;;;;;;25.27;13.13;;;;;;;;;;5008941;28;20050;-85
2023/04/16 00:52:52;;;;;;;27.17;13.10;;;;;;;;;;5022466;28;20046;-85
2023/04/16 00:55:38;;;;;;;26.75;13.15;;;;;;;;;;5016741;28;20065;-86
2023/04/16 00:58:25;;;;;;;29.80;13.63;;;;;;;;;;5009086;28;20050;-84
2023/04/16 01:01:10;;;;;;;29.05;15.27;;;;;;;;;;5020451;28;20054;-84
2023/04/16 01:03:58;;;;;;;32.08;14.23;;;;;;;;;;5022382;28;20053;-84
2023/04/16 01:06:44;;;;;;;25.05;12.60;;;;;;;;;;5022022;28;20045;-84
2023/04/16 01:09:30;;;;;;;35.13;14.55;;;;;;;;;;5022010;28;20395;-84
2023/04/16 01:12:17;;;;;;;32.85;14.13;;;;;;;;;;5008551;28;20045;-84
2023/04/16 01:15:03;;;;;;;27.55;13.65;;;;;;;;;;5022327;28;20402;-85
2023/04/16 01:17:48;;;;;;;29.10;14.05;;;;;;;;;;5022461;28;20042;-85
2023/04/16 01:20:35;;;;;;;28.08;14.43;;;;;;;;;;5016450;28;20042;-84
2023/04/16 01:23:21;;;;;;;27.23;13.45;;;;;;;;;;5007556;28;20402;-84
2023/04/16 01:26:07;;;;;;;24.10;12.45;;;;;;;;;;5008627;28;20432;-84
2023/04/16 01:28:52;;;;;;;25.85;12.75;;;;;;;;;;5016456;28;20046;-85
2023/04/16 01:31:38;;;;;;;30.52;12.15;;;;;;;;;;5022202;28;20421;-85
2023/04/16 01:34:49;;;;;;;23.83;12.10;;;;;;;;;;5022594;28;20482;-85
2023/04/16 01:37:35;;;;;;;23.80;11.77;;;;;;;;;;5021623;28;20402;-84
2023/04/16 01:40:21;;;;;;;22.58;11.23;;;;;;;;;;5007852;28;20058;-84
2023/04/16 01:43:06;;;;;;;22.20;10.80;;;;;;;;;;5021533;28;20053;-85
2023/04/16 01:46:08;;;;;;;21.80;9.35;;;;;;;;;;5016313;28;20041;-84
2023/04/16 01:48:54;;;;;;;20.25;8.38;;;;;;;;;;5021566;28;20042;-84
2023/04/16 01:51:39;;;;;;;24.30;11.43;;;;;;;;;;5014785;28;20494;-84
2023/04/16 01:54:25;;;;;;;22.55;10.65;;;;;;;;;;5016127;28;20034;-84
2023/04/16 01:57:13;;;;;;;27.98;12.95;;;;;;;;;;5021201;28;20085;-85
2023/04/16 01:59:59;;;;;;;23.15;12.27;;;;;;;;;;5021167;28;20046;-84
2023/04/16 02:02:45;;;;;;;30.10;14.57;;;;;;;;;;5001626;28;20050;-84
2023/04/16 02:05:34;;;;;;;33.47;15.50;;;;;;;;;;5007542;28;20057;-85
2023/04/16 02:08:20;;;;;;;23.45;11.93;;;;;;;;;;5021281;28;20049;-85
2023/04/16 02:11:05;;;;;;;25.40;12.88;;;;;;;;;;5014533;28;20046;-84
2023/04/16 02:13:51;;;;;;;30.42;13.07;;;;;;;;;;5021172;28;20046;-85
2023/04/16 02:16:37;;;;;;;23.55;11.20;;;;;;;;;;5007452;28;20050;-85
2023/04/16 02:19:30;;;;;;;26.33;11.18;;;;;;;;;;5007910;28;20054;-84
2023/04/16 02:22:15;;;;;;;23.70;11.60;;;;;;;;;;5011192;28;20045;-86
2023/04/16 02:25:01;;;;;;;24.98;9.63;;;;;;;;;;5027607;28;20042;-84
2023/04/16 02:27:46;;;;;;;21.38;9.98;;;;;;;;;;5027861;28;20046;-84
2023/04/16 02:30:47;;;;;;;20.60;10.55;;;;;;;;;;5027382;28;20395;-84
2023/04/16 02:33:35;;;;;;;21.33;9.50;;;;;;;;;;5012704;28;20050;-83
2023/04/16 02:36:21;;;;;;;18.80;9.15;;;;;;;;;;5026923;28;20042;-85
2023/04/16 02:39:07;;;;;;;22.27;9.52;;;;;;;;;;5027529;28;20046;-85
2023/04/16 02:41:53;;;;;;;21.55;9.23;;;;;;;;;;5010470;28;20046;-86
2023/04/16 02:44:38;;;;;;;18.88;8.15;;;;;;;;;;5007024;28;20471;-85
2023/04/16 02:47:23;;;;;;;15.25;7.82;;;;;;;;;;5006526;28;20049;-85
2023/04/16 02:50:10;;;;;;;15.80;7.95;;;;;;;;;;5014819;28;20054;-85
2023/04/16 02:52:55;;;;;;;14.85;7.15;;;;;;;;;;5006630;28;20478;-85
2023/04/16 02:55:40;;;;;;;17.52;8.10;;;;;;;;;;5006714;28;20042;-85
2023/04/16 02:58:26;;;;;;;20.95;9.05;;;;;;;;;;5020338;28;20482;-85
2023/04/16 03:01:11;;;;;;;20.13;9.18;;;;;;;;;;5004358;28;20046;-85
2023/04/16 03:03:56;;;;;;;21.25;9.48;;;;;;;;;;5006619;28;20050;-86
2023/04/16 03:06:42;;;;;;;18.63;9.82;;;;;;;;;;5020324;28;20046;-85
2023/04/16 03:09:27;;;;;;;23.23;11.57;;;;;;;;;;5019864;28;20050;-85
2023/04/16 03:12:13;;;;;;;27.85;12.90;;;;;;;;;;5016643;28;20034;-86
2023/04/16 03:14:59;;;;;;;28.75;12.23;;;;;;;;;;5014538;28;20045;-85
2023/04/16 03:17:44;;;;;;;23.35;11.90;;;;;;;;;;5019962;28;20046;-85
2023/04/16 03:20:30;;;;;;;26.08;12.63;;;;;;;;;;5006385;28;20050;-86
2023/04/16 03:23:15;;;;;;;23.63;11.50;;;;;;;;;;5013747;28;20045;-85
2023/04/16 03:26:01;;;;;;;25.48;11.50;;;;;;;;;;5032661;28;20045;-85
2023/04/16 03:28:48;;;;;;;18.95;9.85;;;;;;;;;;5025721;28;20041;-85
2023/04/16 03:31:33;;;;;;;18.65;10.00;;;;;;;;;;5025782;28;20504;-86
2023/04/16 03:34:18;;;;;;;18.60;9.13;;;;;;;;;;5022055;28;20045;-86
2023/04/16 03:37:05;;;;;;;16.75;8.95;;;;;;;;;;5029936;28;20049;-85
2023/04/16 03:39:50;;;;;;;21.50;9.88;;;;;;;;;;5028386;28;20041;-86
2023/04/16 03:42:36;;;;;;;18.70;9.65;;;;;;;;;;5028826;28;20041;-86
2023/04/16 03:45:21;;;;;;;18.00;9.38;;;;;;;;;;5017586;28;20050;-85
2023/04/16 03:48:08;;;;;;;18.60;9.30;;;;;;;;;;5017405;28;20112;-86
2023/04/16 03:50:55;;;;;;;14.65;8.38;;;;;;;;;;5004794;28;20080;-85
2023/04/16 03:53:41;;;;;;;23.00;10.05;;;;;;;;;;5025462;28;20046;-86
2023/04/16 03:56:27;;;;;;;19.70;10.20;;;;;;;;;;5019418;28;20053;-85
2023/04/16 03:59:13;;;;;;;22.10;11.00;;;;;;;;;;5019538;28;20057;-86
2023/04/16 04:01:59;;;;;;;27.67;12.02;;;;;;;;;;5013836;28;20406;-86
2023/04/16 04:04:44;;;;;;;23.73;11.90;;;;;;;;;;5019193;28;20054;-85
2023/04/16 04:07:29;;;;;;;20.60;10.75;;;;;;;;;;5005742;28;20049;-86
2023/04/16 04:10:15;;;;;;;22.90;11.32;;;;;;;;;;5019317;28;20050;-86
2023/04/16 04:13:02;;;;;;;27.60;11.55;;;;;;;;;;5019024;28;20049;-85
2023/04/16 04:15:48;;;;;;;19.58;9.77;;;;;;;;;;5019316;28;20054;-86
2023/04/16 04:18:34;;;;;;;12.32;7.88;;;;;;;;;;5019031;28;20049;-86
2023/04/16 04:21:19;;;;;;;10.27;6.10;;;;;;;;;;5005463;28;20054;-86
2023/04/16 04:24:04;;;;;;;9.98;5.50;;;;;;;;;;5019052;28;20486;-86
2023/04/16 04:26:50;;;;;;;7.72;4.45;;;;;;;;;;5032823;28;20046;-86
2023/04/16 04:29:35;;;;;;;10.50;5.15;;;;;;;;;;5033151;28;20050;-86
2023/04/16 04:32:21;;;;;;;10.88;5.00;;;;;;;;;;5018897;28;20054;-86
2023/04/16 04:35:08;;;;;;;8.38;4.75;;;;;;;;;;5019129;28;20042;-85
2023/04/16 04:37:54;;;;;;;11.48;4.68;;;;;;;;;;5019110;28;20502;-85
2023/04/16 04:40:40;;;;;;;9.25;4.78;;;;;;;;;;5019399;28;20054;-86
2023/04/16 04:43:26;;;;;;;9.60;5.20;;;;;;;;;;5005723;28;20402;-86
2023/04/16 04:46:12;;;;;;;12.10;6.15;;;;;;;;;;5018709;28;20062;-86
2023/04/16 04:48:58;;;;;;;10.52;6.47;;;;;;;;;;5019224;28;20050;-86
2023/04/16 04:51:44;;;;;;;14.20;8.90;;;;;;;;;;5019048;28;20058;-86
2023/04/16 04:54:30;;;;;;;13.95;7.38;;;;;;;;;;5012329;28;20046;-86
2023/04/16 04:57:15;;;;;;;16.63;7.25;;;;;;;;;;5018962;28;20042;-87
2023/04/16 05:00:03;;;;;;;18.70;9.32;;;;;;;;;;5008237;28;20053;-86
2023/04/16 05:02:56;;;;;;;14.90;8.93;;;;;;;;;;5015527;28;20057;-86
2023/04/16 05:05:41;;;;;;;19.15;8.98;;;;;;;;;;5022679;28;20478;-85
2023/04/16 05:08:26;;;;;;;21.38;11.32;;;;;;;;;;5029420;28;20050;-85
2023/04/16 05:11:12;;;;;;;18.27;11.40;;;;;;;;;;5015771;28;20041;-86
2023/04/16 05:13:57;;;;;;;21.20;10.02;;;;;;;;;;5021725;28;20046;-85
2023/04/16 05:16:42;;;;;;;17.50;8.90;;;;;;;;;;5029832;28;20049;-86
2023/04/16 05:19:28;;;;;;;24.70;12.13;;;;;;;;;;5029134;28;20038;-86
2023/04/16 05:22:13;;;;;;;23.38;11.43;;;;;;;;;;5021887;28;20054;-87
2023/04/16 05:24:59;;;;;;;20.75;10.15;;;;;;;;;;5022594;28;20058;-86
2023/04/16 05:27:44;;;;;;;17.13;9.30;;;;;;;;;;5020879;28;20050;-85
2023/04/16 05:30:30;;;;;;;18.55;8.15;;;;;;;;;;5012643;28;20050;-86
2023/04/16 05:33:16;;;;;;;19.58;7.88;;;;;;;;;;5023747;28;20046;-85
2023/04/16 05:36:01;;;;;;;30.48;14.38;;;;;;;;;;5041407;28;20054;-86
2023/04/16 05:38:47;;;;;;;16.70;8.18;;;;;;;;;;5035053;28;20394;-86
2023/04/16 05:41:33;;;;;;;22.70;10.77;;;;;;;;;;5025107;28;20053;-85
2023/04/16 05:44:18;;;;;;;22.15;11.65;;;;;;;;;;5034960;28;20469;-86
2023/04/16 05:47:06;;;;;;;30.90;13.23;;;;;;;;;;5036117;28;20045;-86
2023/04/16 05:49:51;;;;;;;24.70;13.30;;;;;;;;;;5027283;28;20057;-86
2023/04/16 05:52:37;;;;;;;36.60;14.70;;;;;;;;;;5041687;28;20049;-86
2023/04/16 05:55:22;;;;;;;27.52;14.80;;;;;;;;;;5041107;28;20053;-85
2023/04/16 05:58:08;;;;;;;28.60;14.88;;;;;;;;;;5041308;28;20482;-86
2023/04/16 06:00:53;;;;;;;34.88;16.67;;;;;;;;;;5026403;28;20402;-86
2023/04/16 06:03:39;;;;;;;30.15;17.15;;;;;;;;;;5027116;28;20053;-87
2023/04/16 06:06:26;;;;;;;42.78;16.90;;;;;;;;;;5034775;28;20053;-85
2023/04/16 06:09:11;;;;;;;30.77;15.52;;;;;;;;;;5027051;28;20049;-86
2023/04/16 06:11:57;;;;;;;29.83;14.20;;;;;;;;;;5027437;28;20057;-85
2023/04/16 06:14:43;;;;;;;26.10;12.52;;;;;;;;;;5040668;28;20045;-85
2023/04/16 06:17:28;;;;;;;21.10;11.95;;;;;;;;;;5037955;28;20041;-87
2023/04/16 06:20:13;;;;;;;26.95;13.15;;;;;;;;;;5027029;28;20049;-87
2023/04/16 06:22:59;;;;;;;23.73;12.38;;;;;;;;;;5023602;28;20046;-86
2023/04/16 06:25:44;;;;;;;26.20;12.85;;;;;;;;;;5035854;28;20049;-86
2023/04/16 06:28:32;;;;;;;22.27;13.15;;;;;;;;;;5026939;28;20045;-87
2023/04/16 06:31:18;;;;;;;25.80;13.77;;;;;;;;;;5025836;28;20049;-84
2023/04/16 06:34:04;;;;;;;27.10;14.20;;;;;;;;;;5026669;28;20045;-84
2023/04/16 06:36:50;;;;;;;26.48;14.50;;;;;;;;;;5033382;28;20061;-84
2023/04/16 06:39:36;;;;;;;28.65;16.08;;;;;;;;;;5039516;28;20049;-87
2023/04/16 06:42:22;;;;;;;31.58;16.33;;;;;;;;;;5022501;28;20054;-85
2023/04/16 06:45:07;;;;;;;33.63;16.50;;;;;;;;;;5013569;28;20060;-83
2023/04/16 06:47:57;;;;;;;32.55;16.08;;;;;;;;;;5024700;28;20046;-86
2023/04/16 06:50:43;;;;;;;24.33;13.27;;;;;;;;;;5023376;28;20042;-87
2023/04/16 06:53:29;;;;;;;22.30;10.95;;;;;;;;;;5013696;28;20041;-86
2023/04/16 06:56:14;;;;;;;21.67;12.73;;;;;;;;;;5014750;28;20050;-87
2023/04/16 06:58:59;;;;;;;17.45;8.95;;;;;;;;;;5020131;28;20471;-87
2023/04/16 07:01:45;;;;;;;23.73;11.73;;;;;;;;;;5020669;28;20050;-86
2023/04/16 07:04:30;;;;;;;24.45;11.70;;;;;;;;;;5030802;28;20049;-86
2023/04/16 07:07:15;;;;;;;21.83;11.02;;;;;;;;;;5038448;28;20049;-87
2023/04/16 07:10:00;;;;;;;20.90;11.75;;;;;;;;;;5025231;28;20042;-85
2023/04/16 07:12:45;;;;;;;15.68;9.00;;;;;;;;;;5025632;28;20046;-87
2023/04/16 07:15:31;;;;;;;25.52;12.25;;;;;;;;;;5040049;28;20041;-86
2023/04/16 07:18:17;;;;;;;16.63;7.72;;;;;;;;;;5034182;28;20053;-84
2023/04/16 07:21:03;;;;;;;11.90;4.80;;;;;;;;;;5025241;28;20046;-83
2023/04/16 07:23:48;;;;;;;17.73;9.70;;;;;;;;;;5027061;28;20050;-84
2023/04/16 07:26:33;;;;;;;11.45;6.68;;;;;;;;;;5025424;28;20049;-84
2023/04/16 07:29:19;;;;;;;20.55;9.27;;;;;;;;;;5031882;28;20493;-85
2023/04/16 07:32:05;;;;;;;18.20;8.38;;;;;;;;;;5033931;28;20042;-86
2023/04/16 07:34:50;;;;;;;22.83;10.43;;;;;;;;;;5034802;28;20042;-86
2023/04/16 07:37:36;;;;;;;19.17;9.35;;;;;;;;;;5024829;28;20489;-85
2023/04/16 07:40:22;;;;;;;24.02;11.60;;;;;;;;;;5025369;28;20049;-86
2023/04/16 07:43:07;;;;;;;21.45;10.55;;;;;;;;;;5026395;28;20046;-84
2023/04/16 07:45:52;;;;;;;20.73;11.65;;;;;;;;;;5023295;28;20046;-86
2023/04/16 07:48:38;;;;;;;16.55;10.30;;;;;;;;;;5013477;28;20409;-87
2023/04/16 07:51:24;;;;;;;15.88;8.90;;;;;;;;;;5024802;28;20049;-87
2023/04/16 07:54:09;;;;;;;16.10;8.00;;;;;;;;;;5024723;28;20041;-87
2023/04/16 07:56:55;;;;;;;6.68;3.42;;;;;;;;;;5023679;28;20049;-87
2023/04/16 07:59:41;;;;;;;14.43;8.35;;;;;;;;;;5019485;28;20390;-83
2023/04/16 08:02:26;;;;;;;21.98;9.95;;;;;;;;;;5032527;28;20054;-84
2023/04/16 08:05:12;;;;;;;17.60;7.57;;;;;;;;;;5031698;28;20041;-84
2023/04/16 08:07:57;;;;;;;10.77;4.80;;;;;;;;;;5032651;28;20041;-84
2023/04/16 08:10:43;;;;;;;12.13;5.88;;;;;;;;;;5025181;28;20050;-84
2023/04/16 08:13:28;;;;;;;9.43;4.78;;;;;;;;;;5036947;28;20406;-82
2023/04/16 08:16:13;;;;;;;8.18;4.20;;;;;;;;;;5028900;28;20041;-83
2023/04/16 08:18:59;;;;;;;13.50;5.72;;;;;;;;;;5022633;28;20045;-84
2023/04/16 08:21:46;;;;;;;7.07;3.60;;;;;;;;;;5027970;28;20046;-82
2023/04/16 08:24:31;;;;;;;8.60;4.18;;;;;;;;;;5028711;28;20053;-83
2023/04/16 08:27:16;;;;;;;9.55;3.95;;;;;;;;;;5034068;28;20053;-83
2023/04/16 08:30:03;;;;;;;9.70;4.28;;;;;;;;;;5031753;28;20494;-83
2023/04/16 08:32:47;;;;;;;8.30;4.18;;;;;;;;;;5032039;28;20042;-83
2023/04/16 08:35:32;;;;;;;10.50;4.80;;;;;;;;;;5035655;28;20042;-83
2023/04/16 08:38:18;;;;;;;8.75;4.40;;;;;;;;;;5034728;28;20045;-83
2023/04/16 08:41:08;;;;;;;8.63;3.97;;;;;;;;;;5028431;28;20054;-83
2023/04/16 08:43:55;;;;;;;7.32;4.22;;;;;;;;;;5035649;28;20049;-82
2023/04/16 08:46:42;;;;;;;5.38;3.40;;;;;;;;;;5036999;28;20030;-83
2023/04/16 08:49:28;;;;;;;6.47;3.10;;;;;;;;;;5042806;28;20045;-83
2023/04/16 08:52:21;;;;;;;8.27;3.40;;;;;;;;;;5033542;28;20041;-83
2023/04/16 08:55:13;;;;;;;6.50;3.58;;;;;;;;;;5036146;28;20045;-83
2023/04/16 08:58:00;;;;;;;10.60;5.43;;;;;;;;;;5031329;28;20045;-83
2023/04/16 09:00:47;;;;;;;5.95;3.22;;;;;;;;;;5022917;28;20050;-85
2023/04/16 09:03:33;;;;;;;6.25;3.42;;;;;;;;;;5022304;28;20038;-85
2023/04/16 09:06:18;;;;;;;8.25;3.88;;;;;;;;;;5024445;28;20041;-84
2023/04/16 09:09:05;;;;;;;6.68;3.33;;;;;;;;;;5035211;28;20053;-85
2023/04/16 09:11:51;;;;;;;8.40;3.30;;;;;;;;;;5031272;28;20050;-84
2023/04/16 09:14:40;;;;;;;9.77;3.58;;;;;;;;;;5015427;28;20049;-82
2023/04/16 09:17:27;;;;;;;9.45;4.75;;;;;;;;;;5022191;28;20050;-85
2023/04/16 09:20:12;;;;;;;5.90;2.95;;;;;;;;;;5015265;28;20042;-83
2023/04/16 09:22:57;;;;;;;6.55;2.78;;;;;;;;;;5016546;28;20050;-83
2023/04/16 09:25:43;;;;;;;6.97;2.40;;;;;;;;;;5015990;28;20045;-82
2023/04/16 09:28:45;;;;;;;5.88;2.83;;;;;;;;;;5015369;28;20486;-86
2023/04/16 09:31:30;;;;;;;9.25;2.40;;;;;;;;;;5022067;28;20045;-86
2023/04/16 09:34:17;;;;;;;7.53;2.85;;;;;;;;;;5021454;28;20042;-84
2023/04/16 09:37:18;;;;;;;7.30;2.78;;;;;;;;;;5020925;28;20490;-85
2023/04/16 09:40:05;;;;;;;9.95;2.67;;;;;;;;;;5007031;28;20050;-84
2023/04/16 09:42:51;;;;;;;7.13;2.70;;;;;;;;;;5007816;28;20053;-84
2023/04/16 09:45:49;;;;;;;6.22;2.50;;;;;;;;;;5012820;28;20049;-83
2023/04/16 09:48:34;;;;;;;5.47;2.55;;;;;;;;;;5007674;28;20046;-84
2023/04/16 09:51:20;;;;;;;5.22;2.53;;;;;;;;;;5014763;28;20058;-83
2023/04/16 09:54:06;;;;;;;3.67;2.05;;;;;;;;;;5020432;28;20050;-82
2023/04/16 09:56:55;;;;;;;5.32;2.42;;;;;;;;;;5021369;28;20041;-85
2023/04/16 09:59:40;;;;;;;5.72;2.33;;;;;;;;;;5021624;28;20045;-84
2023/04/16 10:02:27;;;;;;;7.10;2.10;;;;;;;;;;5002469;28;20050;-84
2023/04/16 10:05:16;;;;;;;7.43;2.30;;;;;;;;;;5021504;28;20075;-86
2023/04/16 10:08:02;;;;;;;11.95;2.10;;;;;;;;;;5015288;28;20482;-82
2023/04/16 10:10:47;;;;;;;7.25;2.42;;;;;;;;;;5021154;28;20046;-85
2023/04/16 10:13:32;;;;;;;7.22;2.78;;;;;;;;;;5007551;28;20050;-87
2023/04/16 10:16:18;;;;;;;7.63;2.20;;;;;;;;;;5020786;28;20053;-85
2023/04/16 10:19:04;;;;;;;4.03;2.03;;;;;;;;;;5021574;28;20050;-87
2023/04/16 10:21:49;;;;;;;4.60;2.20;;;;;;;;;;5006890;28;20046;-86
2023/04/16 10:24:35;;;;;;;4.70;1.90;;;;;;;;;;5020871;28;20058;-82
2023/04/16 10:27:21;;;;;;;4.28;2.20;;;;;;;;;;5021011;28;20050;-85
2023/04/16 10:30:07;;;;;;;6.22;1.90;;;;;;;;;;5020386;28;20046;-86
2023/04/16 10:32:53;;;;;;;5.60;2.47;;;;;;;;;;5020942;28;20054;-84
2023/04/16 10:35:39;;;;;;;5.68;2.20;;;;;;;;;;5020057;28;20042;-83
2023/04/16 10:38:26;;;;;;;6.07;2.40;;;;;;;;;;5020654;28;20042;-84
2023/04/16 10:41:12;;;;;;;5.32;2.10;;;;;;;;;;5006608;28;20042;-84
2023/04/16 10:44:09;;;;;;;4.57;1.90;;;;;;;;;;5013626;28;20053;-84
2023/04/16 10:46:54;;;;;;;3.92;1.75;;;;;;;;;;5006723;28;20053;-86
2023/04/16 10:49:41;;;;;;;6.30;2.08;;;;;;;;;;5006717;28;20054;-84
2023/04/16 10:52:28;;;;;;;3.72;2.08;;;;;;;;;;5020521;28;20049;-86
2023/04/16 10:55:16;;;;;;;4.95;2.55;;;;;;;;;;5006459;28;20046;-83
2023/04/16 10:58:28;;;;;;;5.10;2.30;;;;;;;;;;5019611;28;20053;-84
2023/04/16 11:01:15;;;;;;;5.00;2.30;;;;;;;;;;5004433;28;20049;-84
2023/04/16 11:04:21;;;;;;;5.85;2.28;;;;;;;;;;5019916;28;20037;-84
2023/04/16 11:07:39;;;;;;;5.45;2.45;;;;;;;;;;5006375;28;20050;-85
2023/04/16 11:10:25;;;;;;;4.60;2.60;;;;;;;;;;5019672;28;20046;-84
2023/04/16 11:13:11;;;;;;;7.38;2.45;;;;;;;;;;5006121;28;20042;-84
2023/04/16 11:15:57;;;;;;;6.78;1.95;;;;;;;;;;5019884;28;20410;-85
2023/04/16 11:18:44;;;;;;;5.35;2.60;;;;;;;;;;5005703;28;20046;-83
2023/04/16 11:21:31;;;;;;;9.65;2.53;;;;;;;;;;5006191;28;20053;-84
2023/04/16 11:24:16;;;;;;;7.30;3.10;;;;;;;;;;5005705;28;20426;-83
2023/04/16 11:27:01;;;;;;;6.70;3.28;;;;;;;;;;5010008;28;20042;-85
2023/04/16 11:30:03;;;;;;;7.10;2.65;;;;;;;;;;5025515;28;20045;-83
2023/04/16 11:32:49;;;;;;;6.45;2.50;;;;;;;;;;5025369;28;20042;-83
2023/04/16 11:35:38;;;;;;;6.35;2.78;;;;;;;;;;5025492;28;20423;-84
2023/04/16 11:38:32;;;;;;;6.85;2.67;;;;;;;;;;5024780;28;20405;-85
2023/04/16 11:41:20;;;;;;;6.80;2.53;;;;;;;;;;5039380;28;20049;-85
2023/04/16 11:44:24;;;;;;;8.00;3.10;;;;;;;;;;5031316;28;20049;-84
2023/04/16 11:47:08;;;;;;;5.97;3.10;;;;;;;;;;5024630;28;20045;-86
2023/04/16 11:49:54;;;;;;;9.60;3.90;;;;;;;;;;5032076;28;20042;-84
2023/04/16 11:52:40;;;;;;;8.73;4.53;;;;;;;;;;5033362;28;20042;-84
2023/04/16 11:55:25;;;;;;;8.30;3.15;;;;;;;;;;5025008;28;20398;-85
2023/04/16 11:58:14;;;;;;;4.78;2.53;;;;;;;;;;5025688;28;20053;-83
2023/04/16 12:00:59;;;;;;;8.15;3.72;;;;;;;;;;5023007;28;20474;-85
2023/04/16 12:03:48;;;;;;;8.52;3.95;;;;;;;;;;5025102;28;20045;-84
2023/04/16 12:06:33;;;;;;;19.67;11.90;;;;;;;;;;5024611;28;20046;-85
2023/04/16 12:09:23;;;;;;;11.65;7.70;;;;;;;;;;5028861;28;20045;-85
2023/04/16 12:12:26;;;;;;;7.68;3.75;;;;;;;;;;5029243;28;20041;-84
2023/04/16 12:15:11;;;;;;;12.13;6.50;;;;;;;;;;5028617;28;20045;-85
2023/04/16 12:18:07;;;;;;;14.57;9.00;;;;;;;;;;5029522;28;20050;-84
2023/04/16 12:20:52;;;;;;;19.63;12.85;;;;;;;;;;5036073;28;20045;-85
2023/04/16 12:23:37;;;;;;;11.73;7.35;;;;;;;;;;5029393;28;20469;-86
2023/04/16 12:26:24;;;;;;;5.70;3.42;;;;;;;;;;5036440;28;20506;-84
2023/04/16 12:29:24;;;;;;;5.05;2.70;;;;;;;;;;5036158;28;20394;-85
2023/04/16 12:32:22;;;;;;;4.57;2.63;;;;;;;;;;5028754;28;20049;-85
2023/04/16 12:35:09;;;;;;;5.00;2.60;;;;;;;;;;5028707;28;20049;-85
2023/04/16 12:37:54;;;;;;;13.40;3.75;;;;;;;;;;5042386;28;20580;-85
2023/04/16 12:40:40;;;;;;;5.55;2.90;;;;;;;;;;5015615;28;20389;-85
2023/04/16 12:43:25;;;;;;;4.22;2.00;;;;;;;;;;5042622;28;20046;-83
2023/04/16 12:46:11;;;;;;;2.83;1.90;;;;;;;;;;5035519;28;20481;-84
2023/04/16 12:48:56;;;;;;;5.30;2.63;;;;;;;;;;5036707;28;20046;-85
2023/04/16 12:51:42;;;;;;;6.75;3.38;;;;;;;;;;5035031;28;20046;-84
2023/04/16 12:54:29;;;;;;;4.35;2.10;;;;;;;;;;5035566;28;20045;-85
2023/04/16 12:57:15;;;;;;;6.18;3.25;;;;;;;;;;5041980;28;20041;-86
2023/04/16 13:00:01;;;;;;;4.25;2.17;;;;;;;;;;5036265;28;20045;-86
2023/04/16 13:02:46;;;;;;;4.28;2.00;;;;;;;;;;5021395;28;20418;-84
2023/04/16 13:05:33;;;;;;;7.38;2.63;;;;;;;;;;5036636;28;20390;-84
2023/04/16 13:08:19;;;;;;;5.80;2.60;;;;;;;;;;5028446;28;20057;-84
2023/04/16 13:11:04;;;;;;;7.95;2.67;;;;;;;;;;5036516;28;20397;-84
2023/04/16 13:13:49;;;;;;;9.05;2.72;;;;;;;;;;5036435;28;20038;-85
2023/04/16 13:16:37;;;;;;;9.95;5.90;;;;;;;;;;5042386;28;20045;-85
2023/04/16 13:19:23;;;;;;;5.53;3.22;;;;;;;;;;5027324;28;20402;-85
2023/04/16 13:22:09;;;;;;;7.15;4.22;;;;;;;;;;5041898;28;20406;-83
2023/04/16 13:24:54;;;;;;;5.60;3.20;;;;;;;;;;5035294;28;20041;-84
2023/04/16 13:28:00;;;;;;;7.38;2.70;;;;;;;;;;5035049;28;20049;-89
2023/04/16 13:35:25;;;;;;;9.50;4.07;;;;;;;;;;5025063;28;20046;-87
2023/04/16 13:43:15;;;;;;;7.50;4.55;;;;;;;;;;5012896;28;20046;-88
2023/04/16 13:51:49;;;;;;;3.65;2.10;;;;;;;;;;4877025;29;20045;-89
2023/04/16 13:59:04;;;;;;;39.50;31.77;;;;;;;;;;4877432;23;20052;-77
2023/04/16 14:01:50;;;;;;;7.53;3.83;;;;;;;;;;4937385;29;20047;-76
2023/04/16 14:04:35;;;;;;;7.20;3.65;;;;;;;;;;4938087;29;20493;-75
2023/04/16 14:07:24;;;;;;;4.72;1.65;;;;;;;;;;4943408;29;20423;-74
2023/04/16 14:10:10;;;;;;;13.35;4.32;;;;;;;;;;4938185;29;20044;-75
2023/04/16 14:12:56;;;;;;;10.15;3.97;;;;;;;;;;4938163;29;20052;-75
2023/04/16 14:15:42;;;;;;;14.05;7.38;;;;;;;;;;4938609;29;20073;-79
2023/04/16 14:18:28;;;;;;;18.60;8.40;;;;;;;;;;4939686;29;20493;-79
2023/04/16 14:21:14;;;;;;;9.80;4.78;;;;;;;;;;4941020;29;20052;-79
2023/04/16 14:23:59;;;;;;;11.57;4.03;;;;;;;;;;4941560;29;20048;-79
2023/04/16 14:26:45;;;;;;;7.10;4.28;;;;;;;;;;4941075;29;20051;-79
2023/04/16 14:29:30;;;;;;;8.57;4.53;;;;;;;;;;4941708;29;20477;-79
2023/04/16 14:32:17;;;;;;;10.70;5.05;;;;;;;;;;4940631;29;20047;-80
2023/04/16 14:35:03;;;;;;;7.78;4.32;;;;;;;;;;4940199;29;20043;-79
2023/04/16 14:37:51;;;;;;;8.25;4.15;;;;;;;;;;4940260;29;20047;-80
2023/04/16 14:40:36;;;;;;;11.68;5.78;;;;;;;;;;4925294;29;20047;-79
2023/04/16 14:43:21;;;;;;;8.77;4.03;;;;;;;;;;4931218;29;20052;-78
2023/04/16 14:46:07;;;;;;;6.82;2.80;;;;;;;;;;4945704;29;20474;-79
2023/04/16 14:48:52;;;;;;;18.05;3.83;;;;;;;;;;4938534;29;20048;-78
2023/04/16 14:51:39;;;;;;;6.57;2.88;;;;;;;;;;4939205;29;20055;-78
2023/04/16 14:54:25;;;;;;;9.02;4.25;;;;;;;;;;4939571;29;20069;-77
2023/04/16 14:57:10;;;;;;;11.48;3.90;;;;;;;;;;4940600;29;20055;-78
2023/04/16 14:59:56;;;;;;;5.05;2.58;;;;;;;;;;4936464;29;20044;-75
2023/04/16 15:02:41;;;;;;;6.00;2.78;;;;;;;;;;4935909;29;20044;-75
2023/04/16 15:05:27;;;;;;;5.30;2.97;;;;;;;;;;4937148;29;20051;-75
2023/04/16 15:08:12;;;;;;;9.73;5.10;;;;;;;;;;4937052;29;20044;-77
2023/04/16 15:10:58;;;;;;;8.20;3.60;;;;;;;;;;4937143;29;20052;-75
2023/04/16 15:13:44;;;;;;;7.05;3.03;;;;;;;;;;4937456;29;20043;-78
2023/04/16 15:16:29;;;;;;;11.43;4.95;;;;;;;;;;4936515;29;20047;-75
2023/04/16 15:19:15;;;;;;;12.63;5.45;;;;;;;;;;4936899;29;20051;-78
2023/04/16 15:22:00;;;;;;;14.50;7.60;;;;;;;;;;4937160;29;20047;-78
2023/04/16 15:24:46;;;;;;;11.55;6.35;;;;;;;;;;4936723;29;20044;-75
2023/04/16 15:27:31;;;;;;;12.23;6.07;;;;;;;;;;4937371;29;20394;-78
2023/04/16 15:30:17;;;;;;;12.90;4.35;;;;;;;;;;4936537;29;20052;-75
2023/04/16 15:33:03;;;;;;;8.20;4.72;;;;;;;;;;4936969;29;20482;-75
2023/04/16 15:35:50;;;;;;;22.60;13.77;;;;;;;;;;4922444;29;20048;-75
2023/04/16 15:38:35;;;;;;;24.80;15.75;;;;;;;;;;4936249;29;20386;-75
2023/04/16 15:41:20;;;;;;;18.45;10.98;;;;;;;;;;4936516;29;20502;-75
2023/04/16 15:44:06;;;;;;;7.43;4.88;;;;;;;;;;4936038;29;20406;-75
2023/04/16 15:46:52;;;;;;;12.38;5.75;;;;;;;;;;4936489;29;20039;-75
2023/04/16 15:49:37;;;;;;;17.15;7.85;;;;;;;;;;4937054;29;20474;-75
2023/04/16 15:52:23;;;;;;;12.32;7.68;;;;;;;;;;4936331;29;20063;-75
2023/04/16 15:55:08;;;;;;;17.00;8.93;;;;;;;;;;4936214;29;20481;-75
2023/04/16 15:57:54;;;;;;;14.82;6.38;;;;;;;;;;4936362;29;20477;-75
2023/04/16 16:00:40;;;;;;;11.25;6.63;;;;;;;;;;4935874;29;20043;-75
2023/04/16 16:03:26;;;;;;;26.05;11.43;;;;;;;;;;4919032;29;20527;-75
2023/04/16 16:06:12;;;;;;;32.72;14.27;;;;;;;;;;4936106;29;20481;-75
2023/04/16 16:08:58;;;;;;;30.67;14.77;;;;;;;;;;4941913;29;20043;-76
2023/04/16 16:11:43;;;;;;;16.67;9.18;;;;;;;;;;4936256;29;20052;-80
2023/04/16 16:14:28;;;;;;;13.75;8.70;;;;;;;;;;4936546;29;20048;-76
2023/04/16 16:17:14;;;;;;;14.52;6.60;;;;;;;;;;4936050;29;20055;-76
2023/04/16 16:20:00;;;;;;;13.77;6.80;;;;;;;;;;4935513;29;20055;-76
2023/04/16 16:22:47;;;;;;;12.93;6.70;;;;;;;;;;4936123;29;20080;-77
2023/04/16 16:25:32;;;;;;;10.07;6.93;;;;;;;;;;4936362;29;20052;-77
2023/04/16 16:28:19;;;;;;;12.85;6.35;;;;;;;;;;4936450;29;20043;-77
2023/04/16 16:31:04;;;;;;;13.63;6.25;;;;;;;;;;4936290;29;20044;-79
2023/04/16 16:33:50;;;;;;;14.88;7.05;;;;;;;;;;4936026;29;20052;-77
2023/04/16 16:36:36;;;;;;;10.02;7.05;;;;;;;;;;4921900;29;20490;-78
2023/04/16 16:39:24;;;;;;;10.15;6.40;;;;;;;;;;4936091;29;20040;-78
2023/04/16 16:42:10;;;;;;;14.75;7.50;;;;;;;;;;4936496;29;20051;-78
2023/04/16 16:44:55;;;;;;;15.32;7.78;;;;;;;;;;4935951;29;20052;-78